createdAt,value
2022-12-02T00:01:46.715Z,14.78
2022-12-02T00:04:15.253Z,14.17
2022-12-02T00:06:43.554Z,14.28
2022-12-02T00:09:12.222Z,14.43
2022-12-02T00:14:51.034Z,14.82
2022-12-02T00:17:17.966Z,14.89
2022-12-02T00:22:37.122Z,15.09
2022-12-02T00:25:03.984Z,14.70
2022-12-02T00:27:33.628Z,15.09
2022-12-02T00:33:09.034Z,15.95
2022-12-02T00:35:35.947Z,16.65
2022-12-02T00:38:03.107Z,16.72
2022-12-02T00:40:29.962Z,17.60
2022-12-02T00:42:57.404Z,17.31
2022-12-02T00:45:24.906Z,17.00
2022-12-02T00:47:51.597Z,17.31
2022-12-02T00:56:52.197Z,16.54
2022-12-02T00:59:19.548Z,16.18
2022-12-02T01:01:46.861Z,15.99
2022-12-02T01:04:14.234Z,16.12
2022-12-02T01:06:41.790Z,15.45
2022-12-02T01:09:09.104Z,15.60
2022-12-02T01:11:35.771Z,16.39
2022-12-02T01:14:02.743Z,16.43
2022-12-02T01:16:31.367Z,15.85
2022-12-02T01:19:00.718Z,16.03
2022-12-02T01:21:27.697Z,16.77
2022-12-02T01:23:54.467Z,16.54
2022-12-02T01:26:28.622Z,16.71
2022-12-02T01:28:57.239Z,16.51
2022-12-02T01:31:26.122Z,17.59
2022-12-02T01:33:55.424Z,17.18
2022-12-02T01:36:22.147Z,16.27
2022-12-02T01:38:48.813Z,17.12
2022-12-02T01:41:17.997Z,17.45
2022-12-02T01:43:45.526Z,16.97
2022-12-02T01:46:14.503Z,17.53
2022-12-02T01:48:41.414Z,17.35
2022-12-02T01:51:08.104Z,17.65
2022-12-02T01:53:40.787Z,17.48
2022-12-02T01:56:10.011Z,17.57
2022-12-02T01:58:36.866Z,18.06
2022-12-02T02:01:05.267Z,18.46
2022-12-02T02:03:36.928Z,17.79
2022-12-02T02:06:03.565Z,18.66
2022-12-02T02:08:30.509Z,18.76
2022-12-02T02:10:59.235Z,18.78
2022-12-02T02:13:26.250Z,19.40
2022-12-02T02:15:55.177Z,18.32
2022-12-02T02:18:22.300Z,19.21
2022-12-02T02:20:51.001Z,19.45
2022-12-02T02:23:18.569Z,19.08
2022-12-02T02:25:47.518Z,19.38
2022-12-02T02:28:16.428Z,19.80
2022-12-02T02:30:43.386Z,19.83
2022-12-02T02:33:10.128Z,19.58
2022-12-02T02:35:37.128Z,19.97
2022-12-02T02:38:05.169Z,19.69
2022-12-02T02:40:32.642Z,20.51
2022-12-02T02:42:59.298Z,20.56
2022-12-02T02:45:28.076Z,19.51
2022-12-02T02:47:55.058Z,20.34
2022-12-02T02:50:21.768Z,19.98
2022-12-02T02:52:50.543Z,20.89
2022-12-02T02:55:18.008Z,21.43
2022-12-02T02:57:48.554Z,20.75
2022-12-02T03:00:15.653Z,20.41
2022-12-02T03:02:44.635Z,20.51
2022-12-02T03:05:12.261Z,21.10
2022-12-02T03:07:41.546Z,21.36
2022-12-02T03:10:12.951Z,20.86
2022-12-02T03:12:39.769Z,21.32
2022-12-02T03:15:06.615Z,21.61
2022-12-02T03:17:35.885Z,21.82
2022-12-02T03:20:03.668Z,21.05
2022-12-02T03:22:30.732Z,21.50
2022-12-02T03:24:58.054Z,21.54
2022-12-02T03:27:25.049Z,21.57
2022-12-02T03:29:52.050Z,21.11
2022-12-02T03:32:18.859Z,21.70
2022-12-02T03:34:47.639Z,21.51
2022-12-02T03:37:14.580Z,21.28
2022-12-02T03:39:41.518Z,21.59
2022-12-02T03:42:08.207Z,21.74
2022-12-02T03:44:39.210Z,22.17
2022-12-02T03:47:06.092Z,22.09
2022-12-02T03:49:32.816Z,21.89
2022-12-02T03:52:00.386Z,21.96
2022-12-02T03:54:27.103Z,21.95
2022-12-02T03:56:54.504Z,22.25
2022-12-02T03:59:28.759Z,22.56
2022-12-02T04:01:55.606Z,22.13
2022-12-02T04:04:22.647Z,21.96
2022-12-02T04:06:49.631Z,22.42
2022-12-02T04:09:16.653Z,21.78
2022-12-02T04:11:44.212Z,21.62
2022-12-02T04:14:31.816Z,22.02
2022-12-02T04:17:11.333Z,21.70
2022-12-02T04:19:38.829Z,22.52
2022-12-02T04:22:07.353Z,22.04
2022-12-02T04:24:36.023Z,22.05
2022-12-02T04:27:02.737Z,21.54
2022-12-02T04:29:29.819Z,22.22
2022-12-02T04:31:56.542Z,22.36
2022-12-02T04:34:23.898Z,21.94
2022-12-02T04:36:52.537Z,21.89
2022-12-02T04:39:19.372Z,22.02
2022-12-02T04:41:46.375Z,21.75
2022-12-02T04:44:17.914Z,22.17
2022-12-02T04:46:48.807Z,22.60
2022-12-02T04:49:16.617Z,22.92
2022-12-02T04:51:45.293Z,22.19
2022-12-02T04:54:16.145Z,22.14
2022-12-02T04:56:44.816Z,22.54
2022-12-02T04:59:12.007Z,21.79
2022-12-02T05:01:40.343Z,22.52
2022-12-02T05:04:07.474Z,22.31
2022-12-02T05:06:37.193Z,22.57
2022-12-02T05:09:04.039Z,22.28
2022-12-02T05:11:36.709Z,22.30
2022-12-02T05:14:05.540Z,22.53
2022-12-02T05:16:35.639Z,22.61
2022-12-02T05:19:03.162Z,22.53
2022-12-02T05:21:30.665Z,22.54
2022-12-02T05:23:57.550Z,22.21
2022-12-02T05:26:28.187Z,22.46
2022-12-02T05:29:00.486Z,21.36
2022-12-02T05:31:34.657Z,21.84
2022-12-02T05:34:01.448Z,21.57
2022-12-02T05:36:30.227Z,21.86
2022-12-02T05:38:57.664Z,22.27
2022-12-02T05:41:24.640Z,21.17
2022-12-02T05:43:53.521Z,22.17
2022-12-02T05:46:22.196Z,21.34
2022-12-02T05:48:49.870Z,22.26
2022-12-02T05:51:16.532Z,21.70
2022-12-02T05:53:45.193Z,21.44
2022-12-02T05:56:12.828Z,21.88
2022-12-02T05:58:39.834Z,21.96
2022-12-02T06:01:11.112Z,21.46
2022-12-02T06:03:38.261Z,21.84
2022-12-02T06:06:07.228Z,21.02
2022-12-02T06:08:40.046Z,20.60
2022-12-02T06:11:07.500Z,21.14
2022-12-02T06:13:34.871Z,20.52
2022-12-02T06:16:02.341Z,20.36
2022-12-02T06:18:31.514Z,21.38
2022-12-02T06:20:58.317Z,20.91
2022-12-02T06:23:26.516Z,20.96
2022-12-02T06:25:53.321Z,20.49
2022-12-02T06:28:20.820Z,20.67
2022-12-02T06:30:54.091Z,21.22
2022-12-02T06:33:24.020Z,20.71
2022-12-02T06:41:29.528Z,20.73
2022-12-02T06:44:03.415Z,20.61
2022-12-02T06:46:35.254Z,20.41
2022-12-02T06:49:11.470Z,20.32
2022-12-02T06:54:20.677Z,21.33
2022-12-02T06:56:48.095Z,21.63
2022-12-02T06:59:15.601Z,20.96
2022-12-02T07:01:45.164Z,20.59
2022-12-02T07:04:12.508Z,21.75
2022-12-02T07:06:42.991Z,21.56
2022-12-02T07:09:13.379Z,21.08
2022-12-02T07:11:44.579Z,21.28
2022-12-02T07:14:14.933Z,21.19
2022-12-02T07:16:43.730Z,20.22
2022-12-02T07:22:33.004Z,21.29
2022-12-02T07:28:13.642Z,20.84
2022-12-02T07:30:45.015Z,21.18
2022-12-02T07:33:11.980Z,21.63
2022-12-02T07:35:44.316Z,21.45
2022-12-02T07:38:11.173Z,21.01
2022-12-02T07:40:38.435Z,20.88
2022-12-02T07:43:06.165Z,21.03
2022-12-02T07:48:50.819Z,20.66
2022-12-02T07:51:19.890Z,20.90
2022-12-02T07:53:48.619Z,21.49
2022-12-02T07:56:18.157Z,20.81
2022-12-02T07:59:11.190Z,20.49
2022-12-02T08:01:37.874Z,21.00
2022-12-02T08:04:05.505Z,20.38
2022-12-02T08:06:40.622Z,20.77
2022-12-02T08:11:53.422Z,20.57
2022-12-02T08:14:21.384Z,21.45
2022-12-02T08:16:48.826Z,20.14
2022-12-02T08:22:33.739Z,20.70
2022-12-02T08:30:30.276Z,20.73
2022-12-02T08:38:39.636Z,20.30
2022-12-02T08:41:13.596Z,19.85
2022-12-02T08:43:45.743Z,20.69
2022-12-02T08:49:17.247Z,19.18
2022-12-02T08:57:22.432Z,20.14
2022-12-02T09:05:28.653Z,20.64
2022-12-02T09:07:56.882Z,20.69
2022-12-02T09:10:25.789Z,20.69
2022-12-02T09:12:55.540Z,20.99
2022-12-02T09:18:14.728Z,21.33
2022-12-02T09:20:44.905Z,21.08
2022-12-02T09:23:16.751Z,21.50
2022-12-02T09:25:45.444Z,21.08
2022-12-02T09:28:12.769Z,21.79
2022-12-02T09:30:41.372Z,21.12
2022-12-02T09:33:11.604Z,21.16
2022-12-02T09:35:40.710Z,21.20
2022-12-02T09:38:09.991Z,20.78
2022-12-02T09:40:39.574Z,21.07
2022-12-02T09:43:09.319Z,20.74
2022-12-02T09:48:05.277Z,21.63
2022-12-02T09:50:45.499Z,21.12
2022-12-02T09:56:00.818Z,22.46
2022-12-02T09:58:32.042Z,21.32
2022-12-02T10:01:04.524Z,21.40
2022-12-02T10:03:41.819Z,21.20
2022-12-02T10:09:00.367Z,21.22
2022-12-02T10:11:29.530Z,21.58
2022-12-02T10:13:57.153Z,21.08
2022-12-02T10:16:32.430Z,20.91
2022-12-02T10:18:59.934Z,21.66
2022-12-02T10:21:26.964Z,22.18
2022-12-02T10:26:51.164Z,21.43
2022-12-02T10:29:24.845Z,21.03
2022-12-02T10:34:37.083Z,21.93
2022-12-02T10:37:07.382Z,21.02
2022-12-02T10:39:38.085Z,21.41
2022-12-02T10:42:17.125Z,20.82
2022-12-02T10:44:51.414Z,21.51
2022-12-02T10:47:26.792Z,22.59
2022-12-02T10:49:59.023Z,22.61
2022-12-02T10:52:29.583Z,22.62
2022-12-02T11:06:16.217Z,22.79
2022-12-02T11:08:45.511Z,22.52
2022-12-02T11:11:13.388Z,22.58
2022-12-02T11:13:48.029Z,22.47
2022-12-02T11:16:15.796Z,22.23
2022-12-02T11:18:45.482Z,23.05
2022-12-02T11:21:14.647Z,26.03
2022-12-02T11:23:43.673Z,22.82
2022-12-02T11:26:16.248Z,21.43
2022-12-02T11:28:48.051Z,21.08
2022-12-02T11:31:19.192Z,23.01
2022-12-02T11:33:52.820Z,20.66
2022-12-02T11:36:21.029Z,21.64
2022-12-02T11:38:51.673Z,21.20
2022-12-02T11:41:22.941Z,22.21
2022-12-02T11:43:54.759Z,21.57
2022-12-02T11:46:23.376Z,21.21
2022-12-02T11:48:52.432Z,20.95
2022-12-02T11:51:21.515Z,22.78
2022-12-02T11:53:49.222Z,22.79
2022-12-02T11:56:19.136Z,19.94
2022-12-02T11:58:46.983Z,20.66
2022-12-02T12:01:14.901Z,22.61
2022-12-02T12:03:42.733Z,21.47
2022-12-02T12:06:11.582Z,21.20
2022-12-02T12:08:45.776Z,20.76
2022-12-02T12:11:13.327Z,20.34
2022-12-02T12:13:52.619Z,21.32
2022-12-02T12:16:20.615Z,21.20
2022-12-02T12:18:47.389Z,21.87
2022-12-02T12:21:15.160Z,21.03
2022-12-02T12:23:41.903Z,20.49
2022-12-02T12:26:11.901Z,21.19
2022-12-02T12:28:39.043Z,21.15
2022-12-02T12:31:08.837Z,20.59
2022-12-02T12:33:41.903Z,20.44
2022-12-02T12:36:13.053Z,21.24
2022-12-02T12:38:43.935Z,20.43
2022-12-02T12:41:16.798Z,20.83
2022-12-02T12:43:56.163Z,20.05
2022-12-02T12:46:24.512Z,20.24
2022-12-02T12:48:58.917Z,21.29
2022-12-02T12:51:27.548Z,20.23
2022-12-02T12:53:56.593Z,20.96
2022-12-02T12:56:25.991Z,21.25
2022-12-02T12:58:53.862Z,20.66
2022-12-02T13:01:25.289Z,20.72
2022-12-02T13:03:52.483Z,20.09
2022-12-02T13:06:23.416Z,20.34
2022-12-02T13:08:53.658Z,20.38
2022-12-02T13:11:28.660Z,21.04
2022-12-02T13:13:56.929Z,20.28
2022-12-02T13:16:24.617Z,19.63
2022-12-02T13:18:58.000Z,19.33
2022-12-02T13:21:31.207Z,19.10
2022-12-02T13:24:00.878Z,18.61
2022-12-02T13:26:28.556Z,19.00
2022-12-02T13:31:45.287Z,18.50
2022-12-02T13:34:15.098Z,18.39
2022-12-02T13:39:32.347Z,18.38
2022-12-02T13:42:07.833Z,19.49
2022-12-02T13:44:51.838Z,19.18
2022-12-02T13:47:25.679Z,19.51
2022-12-02T13:50:05.697Z,19.53
2022-12-02T13:52:40.428Z,19.32
2022-12-02T13:55:11.232Z,19.35
2022-12-02T13:57:41.095Z,18.57
2022-12-02T14:00:19.609Z,19.91
2022-12-02T14:05:29.037Z,19.18
2022-12-02T14:07:59.414Z,19.40
2022-12-02T14:10:34.386Z,19.49
2022-12-02T14:13:01.685Z,18.95
2022-12-02T14:15:32.231Z,18.99
2022-12-02T14:17:59.954Z,18.11
2022-12-02T14:20:28.056Z,18.42
2022-12-02T14:22:55.686Z,18.13
2022-12-02T14:28:04.541Z,18.20
2022-12-02T14:30:38.267Z,18.61
2022-12-02T14:35:58.595Z,18.25
2022-12-02T14:38:26.953Z,19.05
2022-12-02T14:40:58.795Z,18.47
2022-12-02T14:43:28.594Z,18.48
2022-12-02T14:51:33.340Z,19.14
2022-12-02T14:54:08.853Z,19.10
2022-12-02T14:59:30.864Z,19.02
2022-12-02T15:02:02.959Z,19.44
2022-12-02T15:04:31.739Z,18.84
2022-12-02T15:06:59.781Z,18.79
2022-12-02T15:09:27.119Z,19.38
2022-12-02T15:12:06.400Z,19.50
2022-12-02T15:14:33.194Z,18.52
2022-12-02T15:17:00.611Z,18.06
2022-12-02T15:22:25.894Z,19.68
2022-12-02T15:24:54.676Z,19.54
2022-12-02T15:27:22.267Z,19.85
2022-12-02T15:29:53.900Z,19.46
2022-12-02T15:32:21.086Z,19.80
2022-12-02T15:34:59.397Z,19.31
2022-12-02T15:37:26.261Z,20.43
2022-12-02T15:39:55.326Z,19.67
2022-12-02T15:42:22.741Z,19.38
2022-12-02T15:44:51.563Z,19.92
2022-12-02T15:56:00.552Z,18.69
2022-12-02T15:58:31.275Z,18.55
2022-12-02T16:00:59.629Z,18.86
2022-12-02T16:03:27.241Z,18.68
2022-12-02T16:06:00.089Z,19.87
2022-12-02T16:08:29.991Z,18.82
2022-12-02T16:10:59.115Z,18.53
2022-12-02T16:13:26.277Z,18.99
2022-12-02T16:18:53.142Z,19.97
2022-12-02T16:21:27.659Z,19.80
2022-12-02T16:23:55.057Z,19.79
2022-12-02T16:26:21.513Z,20.33
2022-12-02T16:28:52.262Z,20.63
2022-12-02T16:43:32.765Z,20.39
2022-12-02T16:46:00.092Z,20.27
2022-12-02T16:48:32.979Z,20.45
2022-12-02T16:51:00.490Z,20.41
2022-12-02T16:53:48.564Z,20.42
2022-12-02T16:56:15.778Z,20.80
2022-12-02T16:58:43.716Z,20.33
2022-12-02T17:01:10.909Z,20.69
2022-12-02T17:03:39.947Z,20.69
2022-12-02T17:06:09.118Z,19.74
2022-12-02T17:08:37.011Z,20.43
2022-12-02T17:11:04.938Z,19.99
2022-12-02T17:13:31.794Z,20.61
2022-12-02T17:16:02.843Z,20.11
2022-12-02T17:18:30.251Z,20.35
2022-12-02T17:20:57.219Z,20.79
2022-12-02T17:23:25.185Z,19.74
2022-12-02T17:25:54.670Z,19.77
2022-12-02T17:28:26.420Z,19.43
2022-12-02T17:30:53.318Z,19.74
2022-12-02T17:33:20.696Z,19.66
2022-12-02T17:35:47.962Z,20.12
2022-12-02T17:49:34.247Z,19.07
2022-12-02T17:52:19.743Z,18.64
2022-12-02T17:54:47.233Z,18.96
2022-12-02T17:57:18.134Z,19.28
2022-12-02T17:59:47.713Z,18.11
2022-12-02T18:02:14.763Z,18.44
2022-12-02T18:04:51.731Z,19.84
2022-12-02T18:07:20.412Z,19.93
2022-12-02T18:09:48.140Z,18.66
2022-12-02T18:12:15.846Z,18.73
2022-12-02T18:14:42.741Z,18.75
2022-12-02T18:17:09.792Z,19.22
2022-12-02T18:19:37.727Z,19.46
2022-12-02T18:22:09.185Z,20.03
2022-12-02T18:24:38.008Z,20.23
2022-12-02T18:27:05.407Z,20.00
2022-12-02T18:29:32.174Z,20.59
2022-12-02T18:31:59.529Z,20.88
2022-12-02T18:34:27.739Z,20.78
2022-12-02T18:36:55.502Z,21.39
2022-12-02T18:39:26.476Z,21.71
2022-12-02T18:41:53.660Z,21.00
2022-12-02T18:44:23.350Z,20.76
2022-12-02T18:46:55.860Z,21.57
2022-12-02T18:52:06.048Z,20.85
2022-12-02T18:54:34.884Z,19.91
2022-12-02T18:59:52.482Z,19.53
2022-12-02T19:02:21.074Z,20.00
2022-12-02T19:04:48.776Z,20.14
2022-12-02T19:13:01.399Z,20.03
2022-12-02T19:15:30.541Z,20.06
2022-12-02T19:17:59.017Z,19.10
2022-12-02T19:23:30.116Z,19.68
2022-12-02T19:25:59.219Z,20.07
2022-12-02T19:28:28.643Z,19.46
2022-12-02T19:34:03.678Z,19.76
2022-12-02T19:36:44.625Z,19.77
2022-12-02T19:39:24.202Z,19.77
2022-12-02T19:41:55.109Z,19.65
2022-12-02T19:44:25.148Z,19.95
2022-12-02T19:46:54.945Z,19.94
2022-12-02T19:49:22.152Z,20.58
2022-12-02T19:51:49.280Z,20.81
2022-12-02T19:54:21.613Z,20.55
2022-12-02T19:56:48.846Z,20.64
2022-12-02T19:59:15.649Z,20.23
2022-12-02T20:01:48.983Z,21.14
2022-12-02T20:04:39.371Z,20.75
2022-12-02T20:07:03.581Z,20.43
2022-12-02T20:09:31.598Z,20.68
2022-12-02T20:12:09.251Z,20.17
2022-12-02T20:14:46.092Z,20.26
2022-12-02T20:17:19.040Z,20.11
2022-12-02T20:19:46.752Z,21.10
2022-12-02T20:22:14.052Z,20.38
2022-12-02T20:24:41.733Z,20.60
2022-12-02T20:27:12.567Z,21.18
2022-12-02T20:29:40.740Z,21.61
2022-12-02T20:32:10.899Z,21.44
2022-12-02T20:34:38.011Z,21.34
2022-12-02T20:37:13.718Z,21.78
2022-12-02T20:39:41.528Z,40.96
2022-12-02T20:42:08.510Z,37.70
2022-12-02T20:44:38.161Z,43.47
2022-12-02T20:47:04.867Z,49.62
2022-12-02T20:49:31.684Z,29.55
2022-12-02T20:51:58.233Z,27.55
2022-12-02T20:54:24.913Z,30.98
2022-12-02T20:56:52.245Z,40.46
2022-12-02T20:59:18.922Z,26.71
2022-12-02T21:01:45.836Z,23.80
2022-12-02T21:04:12.550Z,23.40
2022-12-02T21:06:39.301Z,25.51
2022-12-02T21:09:05.982Z,22.89
2022-12-02T21:20:44.604Z,21.13
2022-12-02T21:23:20.253Z,20.46
2022-12-02T21:28:41.216Z,20.60
2022-12-02T21:31:09.950Z,20.13
2022-12-02T21:33:36.871Z,20.30
2022-12-02T21:36:04.817Z,19.24
2022-12-02T21:38:42.007Z,18.52
2022-12-02T21:41:10.219Z,17.78
2022-12-02T21:43:37.323Z,17.48
2022-12-02T21:46:11.693Z,17.21
2022-12-02T21:48:42.261Z,16.97
2022-12-02T21:51:11.570Z,16.22
2022-12-02T21:53:38.620Z,16.59
2022-12-02T21:56:27.874Z,16.57
2022-12-02T22:14:21.727Z,15.64
2022-12-02T22:16:53.338Z,15.24
2022-12-02T22:19:47.443Z,15.40
2022-12-02T22:22:14.475Z,15.92
2022-12-02T22:24:44.067Z,15.24
2022-12-02T22:27:20.261Z,15.65
2022-12-02T22:29:55.102Z,15.76
2022-12-02T22:32:22.196Z,15.30
2022-12-02T22:34:52.038Z,15.94
2022-12-02T22:37:19.564Z,16.01
2022-12-02T22:39:51.554Z,16.31
2022-12-02T22:42:19.375Z,15.87
2022-12-02T22:44:46.388Z,16.13
2022-12-02T22:50:21.634Z,15.89
2022-12-02T22:52:53.543Z,15.93
2022-12-02T22:55:21.895Z,16.32
2022-12-02T22:58:14.768Z,15.84
2022-12-02T23:00:42.534Z,16.08
2022-12-02T23:03:11.452Z,16.64
2022-12-02T23:28:07.825Z,16.51
2022-12-02T23:30:36.967Z,16.52
2022-12-02T23:33:05.262Z,16.45
2022-12-02T23:35:33.261Z,16.26
2022-12-02T23:38:04.617Z,16.11
2022-12-02T23:40:31.728Z,15.72
2022-12-02T23:43:03.555Z,17.06
2022-12-02T23:45:45.616Z,17.97
2022-12-02T23:48:16.964Z,17.18
2022-12-02T23:50:46.060Z,16.95
2022-12-02T23:53:12.796Z,16.82
2022-12-02T23:55:39.442Z,17.17
2022-12-02T23:58:09.292Z,17.11
